sensor_id;sensor_type;location;lat;lon;timestamp;pressure;altitude;pressure_sealevel;temperature;humidity
22031;BME280;11179;52.106;21.024;2023-05-16T00:00:13;99636.84;;;11.86;74.80
22031;BME280;11179;52.106;21.024;2023-05-16T00:02:39;99646.72;;;11.92;74.62
22031;BME280;11179;52.106;21.024;2023-05-16T00:05:05;99641.50;;;11.96;74.73
22031;BME280;11179;52.106;21.024;2023-05-16T00:07:33;99646.41;;;11.99;74.51
22031;BME280;11179;52.106;21.024;2023-05-16T00:09:58;99645.84;;;12.02;74.63
22031;BME280;11179;52.106;21.024;2023-05-16T00:12:24;99638.97;;;11.99;74.62
22031;BME280;11179;52.106;21.024;2023-05-16T00:14:49;99633.44;;;12.04;74.77
22031;BME280;11179;52.106;21.024;2023-05-16T00:17:17;99628.22;;;12.03;74.55
22031;BME280;11179;52.106;21.024;2023-05-16T00:19:44;99634.28;;;12.05;74.53
22031;BME280;11179;52.106;21.024;2023-05-16T00:22:11;99637.00;;;12.10;74.81
22031;BME280;11179;52.106;21.024;2023-05-16T00:24:37;99647.19;;;12.09;74.93
22031;BME280;11179;52.106;21.024;2023-05-16T00:27:03;99657.91;;;12.11;74.70
22031;BME280;11179;52.106;21.024;2023-05-16T00:29:30;99640.59;;;12.05;74.84
22031;BME280;11179;52.106;21.024;2023-05-16T00:31:55;99644.72;;;12.08;74.49
22031;BME280;11179;52.106;21.024;2023-05-16T00:34:21;99644.16;;;12.11;74.72
22031;BME280;11179;52.106;21.024;2023-05-16T00:36:48;99637.28;;;12.08;74.76
22031;BME280;11179;52.106;21.024;2023-05-16T00:39:14;99637.81;;;12.10;74.90
22031;BME280;11179;52.106;21.024;2023-05-16T00:41:39;99629.31;;;12.07;75.02
22031;BME280;11179;52.106;21.024;2023-05-16T00:44:05;99627.38;;;12.07;74.93
22031;BME280;11179;52.106;21.024;2023-05-16T00:46:31;99636.44;;;12.08;74.85
22031;BME280;11179;52.106;21.024;2023-05-16T00:48:56;99640.59;;;12.05;74.95
22031;BME280;11179;52.106;21.024;2023-05-16T00:51:22;99629.31;;;12.02;74.99
22031;BME280;11179;52.106;21.024;2023-05-16T00:53:48;99635.91;;;12.06;74.83
22031;BME280;11179;52.106;21.024;2023-05-16T00:56:13;99625.47;;;12.03;75.11
22031;BME280;11179;52.106;21.024;2023-05-16T00:58:38;99624.09;;;12.00;75.08
22031;BME280;11179;52.106;21.024;2023-05-16T01:01:04;99618.88;;;11.99;75.34
22031;BME280;11179;52.106;21.024;2023-05-16T01:03:29;99622.72;;;12.03;75.14
22031;BME280;11179;52.106;21.024;2023-05-16T01:05:56;99616.41;;;12.02;75.30
22031;BME280;11179;52.106;21.024;2023-05-16T01:08:22;99632.34;;;12.05;75.08
22031;BME280;11179;52.106;21.024;2023-05-16T01:13:22;99643.06;;;12.07;75.17
22031;BME280;11179;52.106;21.024;2023-05-16T01:16:32;99661.22;;;12.08;75.33
22031;BME280;11179;52.106;21.024;2023-05-16T01:22:07;99656.84;;;12.02;74.90
22031;BME280;11179;52.106;21.024;2023-05-16T01:27:13;99663.72;;;11.99;75.31
22031;BME280;11179;52.106;21.024;2023-05-16T01:29:39;99664.31;;;11.96;75.36
22031;BME280;11179;52.106;21.024;2023-05-16T01:32:05;99665.72;;;11.88;75.20
22031;BME280;11179;52.106;21.024;2023-05-16T01:34:31;99665.22;;;11.81;75.13
22031;BME280;11179;52.106;21.024;2023-05-16T01:37:17;99677.34;;;11.75;75.46
22031;BME280;11179;52.106;21.024;2023-05-16T01:39:55;99679.03;;;11.71;75.43
22031;BME280;11179;52.106;21.024;2023-05-16T01:42:23;99678.50;;;11.64;75.37
22031;BME280;11179;52.106;21.024;2023-05-16T01:47:40;99675.22;;;11.62;75.34
22031;BME280;11179;52.106;21.024;2023-05-16T01:50:13;99692.81;;;11.61;75.53
22031;BME280;11179;52.106;21.024;2023-05-16T01:52:55;99686.22;;;11.62;75.37
22031;BME280;11179;52.106;21.024;2023-05-16T01:55:29;99689.50;;;11.64;75.30
22031;BME280;11179;52.106;21.024;2023-05-16T01:57:57;99684.28;;;11.63;75.46
22031;BME280;11179;52.106;21.024;2023-05-16T02:00:23;99685.66;;;11.65;75.49
22031;BME280;11179;52.106;21.024;2023-05-16T02:02:48;99684.00;;;11.69;75.52
22031;BME280;11179;52.106;21.024;2023-05-16T02:05:13;99683.44;;;11.67;75.40
22031;BME280;11179;52.106;21.024;2023-05-16T02:07:39;99688.69;;;11.64;75.42
22031;BME280;11179;52.106;21.024;2023-05-16T02:10:05;99693.91;;;11.60;75.33
22031;BME280;11179;52.106;21.024;2023-05-16T02:12:31;99687.38;;;11.51;75.39
22031;BME280;11179;52.106;21.024;2023-05-16T02:14:56;99691.22;;;11.50;75.45
22031;BME280;11179;52.106;21.024;2023-05-16T02:17:22;99685.72;;;11.45;75.38
22031;BME280;11179;52.106;21.024;2023-05-16T02:19:47;99690.16;;;11.41;75.38
22031;BME280;11179;52.106;21.024;2023-05-16T02:22:12;99704.44;;;11.38;75.49
22031;BME280;11179;52.106;21.024;2023-05-16T02:24:37;99715.44;;;11.33;75.64
22031;BME280;11179;52.106;21.024;2023-05-16T02:27:03;99707.25;;;11.28;75.64
22031;BME280;11179;52.106;21.024;2023-05-16T02:29:28;99707.78;;;11.25;75.69
22031;BME280;11179;52.106;21.024;2023-05-16T02:31:54;99711.09;;;11.22;75.55
22031;BME280;11179;52.106;21.024;2023-05-16T02:34:19;99708.63;;;11.20;75.48
22031;BME280;11179;52.106;21.024;2023-05-16T02:36:45;99713.28;;;11.19;75.52
22031;BME280;11179;52.106;21.024;2023-05-16T02:39:10;99702.88;;;11.16;75.14
22031;BME280;11179;52.106;21.024;2023-05-16T02:41:36;99707.81;;;11.14;75.35
22031;BME280;11179;52.106;21.024;2023-05-16T02:44:01;99704.50;;;11.12;75.18
22031;BME280;11179;52.106;21.024;2023-05-16T02:46:28;99709.16;;;11.12;75.30
22031;BME280;11179;52.106;21.024;2023-05-16T02:48:57;99704.50;;;11.07;75.34
22031;BME280;11179;52.106;21.024;2023-05-16T02:51:24;99709.75;;;11.04;75.34
22031;BME280;11179;52.106;21.024;2023-05-16T02:53:51;99713.00;;;11.06;75.21
22031;BME280;11179;52.106;21.024;2023-05-16T02:56:17;99709.44;;;11.05;75.29
22031;BME280;11179;52.106;21.024;2023-05-16T02:58:45;99709.44;;;11.05;75.32
22031;BME280;11179;52.106;21.024;2023-05-16T03:01:11;99711.63;;;11.08;75.21
22031;BME280;11179;52.106;21.024;2023-05-16T03:03:36;99708.38;;;11.16;75.32
22031;BME280;11179;52.106;21.024;2023-05-16T03:06:02;99723.69;;;11.43;74.97
22031;BME280;11179;52.106;21.024;2023-05-16T03:08:27;99710.63;;;11.74;74.50
22031;BME280;11179;52.106;21.024;2023-05-16T03:10:52;99715.50;;;11.92;73.89
22031;BME280;11179;52.106;21.024;2023-05-16T03:13:18;99714.66;;;11.97;73.58
22031;BME280;11179;52.106;21.024;2023-05-16T03:15:43;99719.06;;;11.93;73.63
22031;BME280;11179;52.106;21.024;2023-05-16T03:18:09;99722.38;;;11.95;73.58
22031;BME280;11179;52.106;21.024;2023-05-16T03:20:34;99709.09;;;12.07;73.64
22031;BME280;11179;52.106;21.024;2023-05-16T03:23:00;99716.72;;;12.20;73.48
22031;BME280;11179;52.106;21.024;2023-05-16T03:25:25;99723.81;;;12.31;73.73
22031;BME280;11179;52.106;21.024;2023-05-16T03:27:51;99714.38;;;12.47;73.62
22031;BME280;11179;52.106;21.024;2023-05-16T03:30:16;99724.16;;;12.64;73.24
22031;BME280;11179;52.106;21.024;2023-05-16T03:32:44;99723.16;;;12.83;73.24
22031;BME280;11179;52.106;21.024;2023-05-16T03:35:10;99720.53;;;13.02;72.58
22031;BME280;11179;52.106;21.024;2023-05-16T03:37:36;99716.53;;;13.13;71.86
22031;BME280;11179;52.106;21.024;2023-05-16T03:40:01;99708.28;;;13.13;71.51
22031;BME280;11179;52.106;21.024;2023-05-16T03:42:29;99718.31;;;13.04;70.85
22031;BME280;11179;52.106;21.024;2023-05-16T03:44:56;99715.41;;;12.90;70.72
22031;BME280;11179;52.106;21.024;2023-05-16T03:47:21;99718.97;;;12.91;70.46
22031;BME280;11179;52.106;21.024;2023-05-16T03:49:47;99722.50;;;12.96;70.82
22031;BME280;11179;52.106;21.024;2023-05-16T03:52:12;99720.88;;;13.19;70.50
22031;BME280;11179;52.106;21.024;2023-05-16T03:54:38;99714.34;;;13.39;69.77
22031;BME280;11179;52.106;21.024;2023-05-16T03:57:03;99720.66;;;13.68;69.51
22031;BME280;11179;52.106;21.024;2023-05-16T03:59:28;99712.06;;;13.94;68.98
22031;BME280;11179;52.106;21.024;2023-05-16T04:01:54;99721.53;;;14.25;68.44
22031;BME280;11179;52.106;21.024;2023-05-16T04:04:19;99721.66;;;14.53;67.80
22031;BME280;11179;52.106;21.024;2023-05-16T04:06:45;99725.91;;;14.83;67.33
22031;BME280;11179;52.106;21.024;2023-05-16T04:09:10;99727.03;;;15.14;66.50
22031;BME280;11179;52.106;21.024;2023-05-16T04:11:35;99718.47;;;15.29;64.88
22031;BME280;11179;52.106;21.024;2023-05-16T04:14:02;99725.97;;;15.42;63.98
22031;BME280;11179;52.106;21.024;2023-05-16T04:16:28;99731.69;;;15.60;64.40
22031;BME280;11179;52.106;21.024;2023-05-16T04:18:53;99733.47;;;15.83;63.89
22031;BME280;11179;52.106;21.024;2023-05-16T04:21:20;99727.16;;;16.19;63.56
22031;BME280;11179;52.106;21.024;2023-05-16T04:23:45;99724.94;;;16.43;62.46
22031;BME280;11179;52.106;21.024;2023-05-16T04:26:11;99735.03;;;16.75;61.89
22031;BME280;11179;52.106;21.024;2023-05-16T04:28:36;99728.97;;;16.95;59.99
22031;BME280;11179;52.106;21.024;2023-05-16T04:31:02;99739.25;;;17.17;59.22
22031;BME280;11179;52.106;21.024;2023-05-16T04:33:27;99734.28;;;17.36;58.96
22031;BME280;11179;52.106;21.024;2023-05-16T04:35:52;99724.00;;;17.68;58.51
22031;BME280;11179;52.106;21.024;2023-05-16T04:38:19;99714.56;;;17.86;57.12
22031;BME280;11179;52.106;21.024;2023-05-16T04:40:44;99718.88;;;18.09;56.78
22031;BME280;11179;52.106;21.024;2023-05-16T04:43:09;99722.03;;;18.34;56.10
22031;BME280;11179;52.106;21.024;2023-05-16T04:45:35;99724.66;;;18.56;55.57
22031;BME280;11179;52.106;21.024;2023-05-16T04:48:00;99720.88;;;18.78;55.03
22031;BME280;11179;52.106;21.024;2023-05-16T04:50:26;99731.53;;;18.84;53.97
22031;BME280;11179;52.106;21.024;2023-05-16T04:52:51;99733.81;;;18.99;53.37
22031;BME280;11179;52.106;21.024;2023-05-16T04:55:16;99724.63;;;19.08;52.99
22031;BME280;11179;52.106;21.024;2023-05-16T04:57:42;99742.28;;;19.29;52.35
22031;BME280;11179;52.106;21.024;2023-05-16T05:00:08;99750.25;;;19.48;51.98
22031;BME280;11179;52.106;21.024;2023-05-16T05:02:36;99744.28;;;19.66;51.55
22031;BME280;11179;52.106;21.024;2023-05-16T05:05:02;99745.22;;;19.70;51.38
22031;BME280;11179;52.106;21.024;2023-05-16T05:07:27;99743.66;;;19.99;51.03
22031;BME280;11179;52.106;21.024;2023-05-16T05:09:53;99724.88;;;20.17;49.89
22031;BME280;11179;52.106;21.024;2023-05-16T05:12:20;99752.88;;;20.50;49.37
22031;BME280;11179;52.106;21.024;2023-05-16T05:14:46;99758.63;;;20.65;49.42
22031;BME280;11179;52.106;21.024;2023-05-16T05:17:11;99753.06;;;20.86;48.95
22031;BME280;11179;52.106;21.024;2023-05-16T05:19:36;99744.78;;;21.10;47.98
22031;BME280;11179;52.106;21.024;2023-05-16T05:22:02;99747.75;;;21.26;48.03
22031;BME280;11179;52.106;21.024;2023-05-16T05:24:27;99759.97;;;21.34;47.14
22031;BME280;11179;52.106;21.024;2023-05-16T05:26:52;99743.25;;;21.46;46.57
22031;BME280;11179;52.106;21.024;2023-05-16T05:29:18;99762.19;;;21.73;46.04
22031;BME280;11179;52.106;21.024;2023-05-16T05:31:43;99767.19;;;21.68;45.68
22031;BME280;11179;52.106;21.024;2023-05-16T05:34:11;99760.00;;;21.79;45.49
22031;BME280;11179;52.106;21.024;2023-05-16T05:36:36;99767.56;;;22.03;45.47
22031;BME280;11179;52.106;21.024;2023-05-16T05:39:02;99768.28;;;22.24;45.12
22031;BME280;11179;52.106;21.024;2023-05-16T05:41:27;99771.50;;;22.63;44.35
22031;BME280;11179;52.106;21.024;2023-05-16T05:43:52;99773.09;;;22.64;43.63
22031;BME280;11179;52.106;21.024;2023-05-16T05:46:18;99770.56;;;22.59;43.12
22031;BME280;11179;52.106;21.024;2023-05-16T05:48:43;99766.53;;;22.84;42.56
22031;BME280;11179;52.106;21.024;2023-05-16T05:51:09;99759.75;;;22.97;41.96
22031;BME280;11179;52.106;21.024;2023-05-16T05:53:34;99781.09;;;23.17;41.53
22031;BME280;11179;52.106;21.024;2023-05-16T05:56:00;99778.75;;;23.47;40.98
22031;BME280;11179;52.106;21.024;2023-05-16T05:58:25;99780.44;;;23.64;40.54
22031;BME280;11179;52.106;21.024;2023-05-16T06:00:50;99794.94;;;23.54;40.99
22031;BME280;11179;52.106;21.024;2023-05-16T06:03:15;99803.25;;;23.50;40.79
22031;BME280;11179;52.106;21.024;2023-05-16T06:05:41;99812.56;;;23.54;41.11
22031;BME280;11179;52.106;21.024;2023-05-16T06:08:06;99813.00;;;23.69;40.52
22031;BME280;11179;52.106;21.024;2023-05-16T06:10:32;99825.50;;;23.59;39.85
22031;BME280;11179;52.106;21.024;2023-05-16T06:12:57;99827.13;;;23.04;40.34
22031;BME280;11179;52.106;21.024;2023-05-16T06:15:24;99824.28;;;22.64;40.75
22031;BME280;11179;52.106;21.024;2023-05-16T06:17:50;99830.50;;;22.33;41.24
22031;BME280;11179;52.106;21.024;2023-05-16T06:20:15;99827.69;;;22.09;41.73
22031;BME280;11179;52.106;21.024;2023-05-16T06:22:40;99848.47;;;21.75;42.10
22031;BME280;11179;52.106;21.024;2023-05-16T06:25:06;99848.81;;;21.86;41.77
22031;BME280;11179;52.106;21.024;2023-05-16T06:27:32;99847.81;;;21.57;42.05
22031;BME280;11179;52.106;21.024;2023-05-16T06:29:57;99851.88;;;21.06;42.76
22031;BME280;11179;52.106;21.024;2023-05-16T06:32:22;99863.88;;;20.86;43.10
22031;BME280;11179;52.106;21.024;2023-05-16T06:34:48;99864.94;;;20.64;43.51
22031;BME280;11179;52.106;21.024;2023-05-16T06:37:13;99870.97;;;20.74;43.40
22031;BME280;11179;52.106;21.024;2023-05-16T06:39:39;99867.81;;;21.05;43.27
22031;BME280;11179;52.106;21.024;2023-05-16T06:42:04;99868.84;;;21.01;43.00
22031;BME280;11179;52.106;21.024;2023-05-16T06:44:29;99866.88;;;20.72;43.71
22031;BME280;11179;52.106;21.024;2023-05-16T06:46:55;99888.44;;;20.92;43.32
22031;BME280;11179;52.106;21.024;2023-05-16T06:49:20;99881.69;;;20.93;43.44
22031;BME280;11179;52.106;21.024;2023-05-16T06:51:45;99885.44;;;20.68;43.35
22031;BME280;11179;52.106;21.024;2023-05-16T06:54:11;99880.56;;;20.35;43.38
22031;BME280;11179;52.106;21.024;2023-05-16T06:56:36;99890.72;;;20.31;43.76
22031;BME280;11179;52.106;21.024;2023-05-16T06:59:01;99901.22;;;20.64;43.17
22031;BME280;11179;52.106;21.024;2023-05-16T07:01:27;99901.50;;;21.21;42.42
22031;BME280;11179;52.106;21.024;2023-05-16T07:03:52;99905.66;;;21.90;41.95
22031;BME280;11179;52.106;21.024;2023-05-16T07:06:17;99897.28;;;22.47;40.90
22031;BME280;11179;52.106;21.024;2023-05-16T07:08:43;99903.22;;;22.70;40.60
22031;BME280;11179;52.106;21.024;2023-05-16T07:11:08;99914.16;;;22.50;40.05
22031;BME280;11179;52.106;21.024;2023-05-16T07:13:35;99937.84;;;21.96;40.48
22031;BME280;11179;52.106;21.024;2023-05-16T07:16:00;99946.41;;;21.58;41.21
22031;BME280;11179;52.106;21.024;2023-05-16T07:18:26;99950.50;;;21.81;41.33
22031;BME280;11179;52.106;21.024;2023-05-16T07:20:51;99950.53;;;21.93;41.16
22031;BME280;11179;52.106;21.024;2023-05-16T07:23:16;99961.97;;;21.67;41.16
22031;BME280;11179;52.106;21.024;2023-05-16T07:25:42;99955.75;;;21.41;41.72
22031;BME280;11179;52.106;21.024;2023-05-16T07:28:07;99954.34;;;21.05;42.21
22031;BME280;11179;52.106;21.024;2023-05-16T07:30:32;99955.63;;;20.87;42.21
22031;BME280;11179;52.106;21.024;2023-05-16T07:32:58;99965.31;;;20.81;42.70
22031;BME280;11179;52.106;21.024;2023-05-16T07:35:24;99972.44;;;20.99;42.57
22031;BME280;11179;52.106;21.024;2023-05-16T07:37:49;99975.69;;;21.72;41.33
22031;BME280;11179;52.106;21.024;2023-05-16T07:40:15;99982.22;;;22.30;40.28
22031;BME280;11179;52.106;21.024;2023-05-16T07:42:42;99986.88;;;22.26;39.93
22031;BME280;11179;52.106;21.024;2023-05-16T07:45:07;99986.75;;;22.23;40.15
22031;BME280;11179;52.106;21.024;2023-05-16T07:47:33;99991.78;;;21.96;40.19
22031;BME280;11179;52.106;21.024;2023-05-16T07:49:59;99983.25;;;21.72;40.86
22031;BME280;11179;52.106;21.024;2023-05-16T07:52:24;99983.25;;;21.72;40.80
22031;BME280;11179;52.106;21.024;2023-05-16T07:54:50;99980.06;;;22.15;40.30
22031;BME280;11179;52.106;21.024;2023-05-16T07:57:15;99981.31;;;22.50;40.00
22031;BME280;11179;52.106;21.024;2023-05-16T07:59:41;99992.59;;;22.30;39.96
22031;BME280;11179;52.106;21.024;2023-05-16T08:02:07;99994.94;;;22.07;40.28
22031;BME280;11179;52.106;21.024;2023-05-16T08:04:33;99995.88;;;22.11;40.33
22031;BME280;11179;52.106;21.024;2023-05-16T08:06:58;100001.91;;;22.01;40.23
22031;BME280;11179;52.106;21.024;2023-05-16T08:09:23;100007.41;;;21.76;40.66
22031;BME280;11179;52.106;21.024;2023-05-16T08:11:49;99999.06;;;21.47;40.58
22031;BME280;11179;52.106;21.024;2023-05-16T08:14:14;100008.69;;;21.79;40.69
22031;BME280;11179;52.106;21.024;2023-05-16T08:16:39;100008.94;;;22.40;40.10
22031;BME280;11179;52.106;21.024;2023-05-16T08:19:05;99997.22;;;23.07;38.88
22031;BME280;11179;52.106;21.024;2023-05-16T08:21:31;99994.31;;;23.04;38.54
22031;BME280;11179;52.106;21.024;2023-05-16T08:23:56;99995.59;;;23.18;38.72
22031;BME280;11179;52.106;21.024;2023-05-16T08:26:22;99998.19;;;22.99;38.57
22031;BME280;11179;52.106;21.024;2023-05-16T08:28:47;100002.28;;;22.32;39.03
22031;BME280;11179;52.106;21.024;2023-05-16T08:31:13;100003.09;;;21.79;39.70
22031;BME280;11179;52.106;21.024;2023-05-16T08:33:38;100004.63;;;21.47;40.00
22031;BME280;11179;52.106;21.024;2023-05-16T08:36:04;100004.22;;;21.36;40.16
22031;BME280;11179;52.106;21.024;2023-05-16T08:38:30;100007.75;;;21.25;40.78
22031;BME280;11179;52.106;21.024;2023-05-16T08:40:55;100001.94;;;21.09;40.61
22031;BME280;11179;52.106;21.024;2023-05-16T08:43:21;100009.66;;;21.33;40.40
22031;BME280;11179;52.106;21.024;2023-05-16T08:45:46;100002.16;;;21.54;40.22
22031;BME280;11179;52.106;21.024;2023-05-16T08:48:13;100002.97;;;21.75;39.77
22031;BME280;11179;52.106;21.024;2023-05-16T08:50:39;100001.00;;;21.76;39.64
22031;BME280;11179;52.106;21.024;2023-05-16T08:53:08;100000.97;;;21.97;39.47
22031;BME280;11179;52.106;21.024;2023-05-16T08:55:35;99998.66;;;22.11;39.21
22031;BME280;11179;52.106;21.024;2023-05-16T08:58:01;100005.56;;;22.34;39.03
22031;BME280;11179;52.106;21.024;2023-05-16T09:00:27;100021.63;;;22.37;38.41
22031;BME280;11179;52.106;21.024;2023-05-16T09:02:53;100022.47;;;22.17;38.89
22031;BME280;11179;52.106;21.024;2023-05-16T09:05:18;100018.25;;;22.11;38.91
22031;BME280;11179;52.106;21.024;2023-05-16T09:07:44;100017.78;;;22.09;39.04
22031;BME280;11179;52.106;21.024;2023-05-16T09:10:11;100015.34;;;22.07;39.35
22031;BME280;11179;52.106;21.024;2023-05-16T09:12:40;100023.50;;;22.12;39.31
22031;BME280;11179;52.106;21.024;2023-05-16T09:15:07;100026.81;;;21.94;39.34
22031;BME280;11179;52.106;21.024;2023-05-16T09:17:43;100025.31;;;21.75;39.26
22031;BME280;11179;52.106;21.024;2023-05-16T09:22:40;100032.66;;;21.59;39.41
22031;BME280;11179;52.106;21.024;2023-05-16T09:25:16;100036.25;;;21.68;39.57
22031;BME280;11179;52.106;21.024;2023-05-16T09:27:41;100041.28;;;21.54;39.67
22031;BME280;11179;52.106;21.024;2023-05-16T09:30:08;100051.38;;;21.38;40.03
22031;BME280;11179;52.106;21.024;2023-05-16T09:32:34;100060.94;;;21.58;40.67
22031;BME280;11179;52.106;21.024;2023-05-16T09:34:59;100060.41;;;21.64;39.92
22031;BME280;11179;52.106;21.024;2023-05-16T09:37:24;100061.75;;;21.58;40.10
22031;BME280;11179;52.106;21.024;2023-05-16T09:39:52;100066.47;;;21.37;40.47
22031;BME280;11179;52.106;21.024;2023-05-16T09:42:19;100074.78;;;21.25;40.36
22031;BME280;11179;52.106;21.024;2023-05-16T09:44:53;100080.44;;;21.07;40.42
22031;BME280;11179;52.106;21.024;2023-05-16T09:47:20;100076.38;;;20.96;41.20
22031;BME280;11179;52.106;21.024;2023-05-16T09:49:51;100081.41;;;21.12;40.77
22031;BME280;11179;52.106;21.024;2023-05-16T09:52:16;100086.75;;;21.25;40.34
22031;BME280;11179;52.106;21.024;2023-05-16T09:54:42;100084.06;;;21.37;40.67
22031;BME280;11179;52.106;21.024;2023-05-16T09:57:08;100090.06;;;21.57;40.49
22031;BME280;11179;52.106;21.024;2023-05-16T09:59:38;100093.66;;;21.57;40.01
22031;BME280;11179;52.106;21.024;2023-05-16T10:02:06;100097.03;;;21.42;40.12
22031;BME280;11179;52.106;21.024;2023-05-16T10:04:34;100103.75;;;21.41;39.65
22031;BME280;11179;52.106;21.024;2023-05-16T10:07:02;100112.16;;;21.91;39.63
22031;BME280;11179;52.106;21.024;2023-05-16T10:09:32;100115.16;;;22.07;38.67
22031;BME280;11179;52.106;21.024;2023-05-16T10:11:59;100123.81;;;21.93;38.74
22031;BME280;11179;52.106;21.024;2023-05-16T10:14:29;100109.47;;;21.53;38.65
22031;BME280;11179;52.106;21.024;2023-05-16T10:16:58;100129.13;;;21.27;39.41
22031;BME280;11179;52.106;21.024;2023-05-16T10:19:24;100125.63;;;21.01;39.81
22031;BME280;11179;52.106;21.024;2023-05-16T10:21:53;100123.88;;;20.88;39.73
22031;BME280;11179;52.106;21.024;2023-05-16T10:24:28;100126.84;;;20.74;39.91
22031;BME280;11179;52.106;21.024;2023-05-16T10:26:55;100129.94;;;20.64;39.93
22031;BME280;11179;52.106;21.024;2023-05-16T10:29:21;100128.50;;;20.58;40.46
22031;BME280;11179;52.106;21.024;2023-05-16T10:31:47;100129.50;;;20.62;40.35
22031;BME280;11179;52.106;21.024;2023-05-16T10:34:12;100134.53;;;20.68;40.52
22031;BME280;11179;52.106;21.024;2023-05-16T10:36:38;100136.34;;;20.82;40.16
22031;BME280;11179;52.106;21.024;2023-05-16T10:39:04;100145.00;;;20.97;40.55
22031;BME280;11179;52.106;21.024;2023-05-16T10:41:32;100145.31;;;21.04;40.86
22031;BME280;11179;52.106;21.024;2023-05-16T10:43:58;100147.22;;;21.21;40.31
22031;BME280;11179;52.106;21.024;2023-05-16T10:46:25;100142.56;;;21.34;40.30
22031;BME280;11179;52.106;21.024;2023-05-16T10:48:52;100144.41;;;21.30;39.68
22031;BME280;11179;52.106;21.024;2023-05-16T10:53:46;100126.66;;;21.26;40.03
22031;BME280;11179;52.106;21.024;2023-05-16T10:56:11;100127.75;;;21.42;40.25
22031;BME280;11179;52.106;21.024;2023-05-16T11:01:28;100134.84;;;22.10;39.01
22031;BME280;11179;52.106;21.024;2023-05-16T11:06:32;100135.81;;;22.56;38.88
22031;BME280;11179;52.106;21.024;2023-05-16T11:17:37;100157.25;;;22.31;39.20
22031;BME280;11179;52.106;21.024;2023-05-16T11:22:08;100151.78;;;22.14;38.77
22031;BME280;11179;52.106;21.024;2023-05-16T11:24:35;100151.22;;;22.00;38.87
22031;BME280;11179;52.106;21.024;2023-05-16T11:27:02;100156.56;;;21.93;38.65
22031;BME280;11179;52.106;21.024;2023-05-16T11:29:33;100168.13;;;21.83;38.81
22031;BME280;11179;52.106;21.024;2023-05-16T11:32:00;100171.28;;;21.72;38.06
22031;BME280;11179;52.106;21.024;2023-05-16T11:34:26;100169.75;;;21.84;38.57
22031;BME280;11179;52.106;21.024;2023-05-16T11:36:51;100162.63;;;21.95;38.22
22031;BME280;11179;52.106;21.024;2023-05-16T11:39:17;100156.69;;;21.96;38.38
22031;BME280;11179;52.106;21.024;2023-05-16T11:41:45;100160.09;;;22.02;38.18
22031;BME280;11179;52.106;21.024;2023-05-16T11:44:13;100147.00;;;22.14;38.46
22031;BME280;11179;52.106;21.024;2023-05-16T11:46:39;100160.41;;;22.30;38.67
22031;BME280;11179;52.106;21.024;2023-05-16T11:49:06;100161.69;;;22.32;38.56
22031;BME280;11179;52.106;21.024;2023-05-16T11:51:32;100164.75;;;22.39;38.52
22031;BME280;11179;52.106;21.024;2023-05-16T11:53:59;100185.78;;;22.45;38.34
22031;BME280;11179;52.106;21.024;2023-05-16T11:56:26;100173.34;;;22.55;37.92
22031;BME280;11179;52.106;21.024;2023-05-16T11:58:51;100171.56;;;22.50;38.27
22031;BME280;11179;52.106;21.024;2023-05-16T12:01:17;100174.09;;;22.43;38.48
22031;BME280;11179;52.106;21.024;2023-05-16T12:03:42;100170.50;;;22.43;38.31
22031;BME280;11179;52.106;21.024;2023-05-16T12:06:07;100178.94;;;22.55;38.25
22031;BME280;11179;52.106;21.024;2023-05-16T12:08:33;100177.03;;;22.47;38.13
22031;BME280;11179;52.106;21.024;2023-05-16T12:10:59;100185.91;;;22.28;37.63
22031;BME280;11179;52.106;21.024;2023-05-16T12:13:24;100185.22;;;22.31;38.18
22031;BME280;11179;52.106;21.024;2023-05-16T12:15:50;100177.91;;;22.60;38.07
22031;BME280;11179;52.106;21.024;2023-05-16T12:18:19;100171.47;;;22.92;37.65
22031;BME280;11179;52.106;21.024;2023-05-16T12:20:45;100178.06;;;22.96;37.58
22031;BME280;11179;52.106;21.024;2023-05-16T12:23:11;100179.00;;;23.00;37.73
22031;BME280;11179;52.106;21.024;2023-05-16T12:25:37;100174.81;;;23.06;37.30
22031;BME280;11179;52.106;21.024;2023-05-16T12:28:08;100175.06;;;22.80;36.92
22031;BME280;11179;52.106;21.024;2023-05-16T12:30:34;100173.69;;;22.54;37.44
22031;BME280;11179;52.106;21.024;2023-05-16T12:33:02;100177.63;;;22.52;37.53
22031;BME280;11179;52.106;21.024;2023-05-16T12:35:32;100173.47;;;22.59;37.64
22031;BME280;11179;52.106;21.024;2023-05-16T12:37:58;100180.13;;;22.66;38.20
22031;BME280;11179;52.106;21.024;2023-05-16T12:40:28;100183.44;;;22.27;37.46
22031;BME280;11179;52.106;21.024;2023-05-16T12:42:54;100170.59;;;22.05;37.60
22031;BME280;11179;52.106;21.024;2023-05-16T12:45:20;100171.91;;;22.07;37.47
22031;BME280;11179;52.106;21.024;2023-05-16T12:47:47;100179.13;;;22.08;37.72
22031;BME280;11179;52.106;21.024;2023-05-16T12:50:14;100177.16;;;22.09;37.76
22031;BME280;11179;52.106;21.024;2023-05-16T12:52:52;100164.34;;;22.08;37.67
22031;BME280;11179;52.106;21.024;2023-05-16T12:55:19;100167.66;;;22.01;38.05
22031;BME280;11179;52.106;21.024;2023-05-16T12:57:45;100169.78;;;22.04;37.96
22031;BME280;11179;52.106;21.024;2023-05-16T13:00:12;100174.56;;;22.04;38.23
22031;BME280;11179;52.106;21.024;2023-05-16T13:02:38;100173.59;;;22.00;38.54
22031;BME280;11179;52.106;21.024;2023-05-16T13:05:04;100164.13;;;21.92;38.23
22031;BME280;11179;52.106;21.024;2023-05-16T13:07:31;100167.69;;;21.72;38.58
22031;BME280;11179;52.106;21.024;2023-05-16T13:09:57;100175.47;;;21.66;39.26
22031;BME280;11179;52.106;21.024;2023-05-16T13:12:22;100171.38;;;21.85;39.21